Time;durP1;ratioP1;P1;durP2;ratioP2;P2;SDS_P1;SDS_P2;PMS_P1;PMS_P2;Temp;Humidity;BMP_temperature;BMP_pressure;BME280_temperature;BME280_humidity;BME280_pressure;Samples;Min_cycle;Max_cycle;Signal;HPM_P1;HPM_P2
2021/05/11 00:01:19;;;;;;;1.00;0.63;;;24.80;40.60;;;;;;5040239;28;20151;-61
2021/05/11 00:03:47;;;;;;;0.73;0.73;;;24.80;40.60;;;;;;5043842;28;20688;-61
2021/05/11 00:06:14;;;;;;;0.70;0.70;;;24.80;40.60;;;;;;5044289;28;20076;-61
2021/05/11 00:08:40;;;;;;;1.65;0.85;;;24.80;40.60;;;;;;5043982;28;20143;-60
2021/05/11 00:11:07;;;;;;;0.82;0.70;;;24.80;40.60;;;;;;5043676;28;20076;-61
2021/05/11 00:13:34;;;;;;;0.70;0.70;;;24.70;40.60;;;;;;5044146;28;20414;-60
2021/05/11 00:16:01;;;;;;;0.75;0.75;;;24.70;40.50;;;;;;5043600;28;20053;-60
2021/05/11 00:18:27;;;;;;;0.80;0.80;;;24.70;40.60;;;;;;5040870;28;20076;-60
2021/05/11 00:20:54;;;;;;;0.73;0.73;;;24.70;40.60;;;;;;5034110;28;20077;-61
2021/05/11 00:23:21;;;;;;;0.80;0.80;;;24.70;40.60;;;;;;5041299;28;20053;-61
2021/05/11 00:25:47;;;;;;;0.80;0.80;;;24.70;40.60;;;;;;5043701;28;20083;-60
2021/05/11 00:28:14;;;;;;;1.00;0.90;;;24.70;40.70;;;;;;5044214;28;20057;-60
2021/05/11 00:30:41;;;;;;;0.50;0.50;;;24.70;40.70;;;;;;5044024;28;20164;-60
2021/05/11 00:33:07;;;;;;;0.70;0.70;;;24.70;40.80;;;;;;5038939;28;20065;-60
2021/05/11 00:35:34;;;;;;;1.15;0.70;;;24.60;40.80;;;;;;5040933;28;20045;-60
2021/05/11 00:38:00;;;;;;;0.82;0.80;;;24.60;40.80;;;;;;5039299;28;20134;-61
2021/05/11 00:40:27;;;;;;;0.90;0.55;;;24.60;40.80;;;;;;5041219;28;20140;-61
2021/05/11 00:42:54;;;;;;;0.60;0.60;;;24.60;40.80;;;;;;5044501;28;20045;-61
2021/05/11 00:45:21;;;;;;;0.70;0.70;;;24.60;40.80;;;;;;5047406;28;20115;-60
2021/05/11 00:47:47;;;;;;;0.60;0.60;;;24.60;40.80;;;;;;5048259;28;20049;-60
2021/05/11 00:50:14;;;;;;;0.50;0.50;;;24.60;40.80;;;;;;5043989;28;20510;-60
2021/05/11 00:52:41;;;;;;;0.70;0.70;;;24.60;40.70;;;;;;5040449;28;20146;-60
2021/05/11 00:55:09;;;;;;;0.52;0.52;;;24.60;40.80;;;;;;5043298;28;20494;-60
2021/05/11 00:57:36;;;;;;;0.60;0.60;;;24.60;40.70;;;;;;5042524;28;20061;-61
2021/05/11 01:00:06;;;;;;;0.60;0.60;;;24.60;40.70;;;;;;5044056;28;20088;-61
2021/05/11 01:02:33;;;;;;;0.70;0.70;;;24.60;40.80;;;;;;5043867;28;20457;-61
2021/05/11 01:05:00;;;;;;;0.60;0.60;;;24.60;40.80;;;;;;5044023;28;20680;-62
2021/05/11 01:07:27;;;;;;;0.85;0.60;;;24.60;40.80;;;;;;5042402;28;20509;-62
2021/05/11 01:09:53;;;;;;;0.63;0.63;;;24.50;40.70;;;;;;5041118;28;20330;-61
2021/05/11 01:12:21;;;;;;;0.63;0.63;;;24.50;40.70;;;;;;5047283;28;20053;-61
2021/05/11 01:14:48;;;;;;;0.60;0.60;;;24.50;40.80;;;;;;5047627;28;20036;-61
2021/05/11 01:17:17;;;;;;;0.73;0.73;;;24.50;40.80;;;;;;5047229;28;20053;-61
2021/05/11 01:19:48;;;;;;;0.40;0.40;;;24.50;40.90;;;;;;5047469;28;20501;-61
2021/05/11 01:22:29;;;;;;;0.57;0.57;;;24.50;40.90;;;;;;5046854;28;20053;-61
2021/05/11 01:25:05;;;;;;;0.65;0.65;;;24.50;40.90;;;;;;5047686;28;20076;-60
2021/05/11 01:27:53;;;;;;;0.63;0.63;;;24.50;40.90;;;;;;5047177;28;20486;-60
2021/05/11 01:44:37;;;;;;;0.82;0.82;;;24.40;40.90;;;;;;5047176;28;20134;-60
2021/05/11 01:49:59;;;;;;;1.02;0.60;;;24.40;41.00;;;;;;5038036;28;20138;-60
2021/05/11 01:52:46;;;;;;;0.65;0.65;;;24.40;40.90;;;;;;5044556;28;20049;-62
2021/05/11 01:55:26;;;;;;;0.50;0.50;;;24.30;40.90;;;;;;5046620;28;20045;-61
2021/05/11 01:58:22;;;;;;;0.73;0.73;;;24.40;41.00;;;;;;5046565;28;20048;-61
2021/05/11 02:22:53;;;;;;;1.13;0.70;;;24.30;41.10;;;;;;5042838;28;20049;-60
2021/05/11 02:25:21;;;;;;;0.60;0.60;;;24.30;41.10;;;;;;5043272;28;20041;-60
2021/05/11 02:27:47;;;;;;;0.60;0.60;;;24.30;41.10;;;;;;5040181;28;20529;-61
2021/05/11 02:30:15;;;;;;;0.65;0.60;;;24.30;41.10;;;;;;5057119;28;20059;-61
2021/05/11 02:32:43;;;;;;;0.68;0.68;;;24.30;41.10;;;;;;5040011;28;20049;-61
2021/05/11 02:35:12;;;;;;;0.63;0.63;;;24.30;41.10;;;;;;5043150;28;20128;-61
2021/05/11 02:37:39;;;;;;;0.50;0.50;;;24.20;41.10;;;;;;5042816;28;20629;-61
2021/05/11 02:40:08;;;;;;;0.88;0.65;;;24.20;41.10;;;;;;5035899;28;20442;-60
2021/05/11 02:42:36;;;;;;;0.60;0.60;;;24.20;41.10;;;;;;5041422;28;20049;-60
2021/05/11 02:45:10;;;;;;;0.75;0.35;;;24.20;41.10;;;;;;5045680;28;20068;-60
2021/05/11 02:47:47;;;;;;;0.70;0.70;;;24.20;41.70;;;;;;5045600;28;20049;-60
2021/05/11 02:50:20;;;;;;;0.80;0.80;;;24.20;41.20;;;;;;5044748;28;20049;-60
2021/05/11 02:52:47;;;;;;;0.65;0.63;;;24.20;41.20;;;;;;5044803;28;20142;-61
2021/05/11 02:55:15;;;;;;;0.80;0.80;;;24.20;41.20;;;;;;5045781;28;20482;-60
2021/05/11 02:57:42;;;;;;;0.45;0.45;;;24.10;41.20;;;;;;5045043;28;20514;-61
2021/05/11 03:00:11;;;;;;;0.57;0.57;;;24.10;41.20;;;;;;5043871;28;20152;-60
2021/05/11 03:02:38;;;;;;;1.17;0.73;;;24.10;41.20;;;;;;5038166;28;20431;-60
2021/05/11 03:05:06;;;;;;;0.75;0.75;;;24.10;41.20;;;;;;5037555;28;20103;-61
2021/05/11 03:07:32;;;;;;;0.60;0.60;;;24.20;41.20;;;;;;5038699;28;20515;-61
2021/05/11 03:09:59;;;;;;;0.60;0.60;;;24.20;41.20;;;;;;5038545;28;20072;-62
2021/05/11 03:12:26;;;;;;;0.82;0.52;;;24.20;41.20;;;;;;5037788;28;20328;-61
2021/05/11 03:14:52;;;;;;;0.60;0.60;;;24.20;41.30;;;;;;5043867;28;20081;-61
2021/05/11 03:17:19;;;;;;;0.68;0.68;;;24.10;41.20;;;;;;5044598;28;20088;-61
2021/05/11 03:19:46;;;;;;;0.80;0.80;;;24.10;41.20;;;;;;5045497;28;20056;-60
2021/05/11 03:22:13;;;;;;;0.68;0.68;;;24.10;41.20;;;;;;5043997;28;20579;-61
2021/05/11 03:24:44;;;;;;;0.82;0.80;;;24.10;41.20;;;;;;5045774;28;20379;-61
2021/05/11 03:27:12;;;;;;;0.70;0.70;;;24.10;41.20;;;;;;5044814;28;20053;-61
2021/05/11 03:29:39;;;;;;;0.40;0.40;;;24.10;41.20;;;;;;5044894;28;20139;-61
2021/05/11 03:32:07;;;;;;;1.02;0.70;;;24.10;41.20;;;;;;5043701;28;20516;-61
2021/05/11 03:34:34;;;;;;;0.55;0.55;;;24.10;41.20;;;;;;5043548;28;20053;-62
2021/05/11 03:37:02;;;;;;;0.70;0.70;;;24.10;41.10;;;;;;5044586;28;20361;-60
2021/05/11 03:39:33;;;;;;;0.60;0.60;;;24.10;41.20;;;;;;5044269;28;20126;-60
2021/05/11 03:42:05;;;;;;;0.60;0.50;;;24.10;41.10;;;;;;5044633;28;20470;-60
2021/05/11 03:44:33;;;;;;;1.38;0.60;;;24.10;41.10;;;;;;5043090;28;20124;-60
2021/05/11 03:47:00;;;;;;;0.65;0.65;;;24.10;41.10;;;;;;5032586;28;20124;-60
2021/05/11 03:49:27;;;;;;;1.55;0.50;;;24.10;41.10;;;;;;5035288;28;20056;-60
2021/05/11 03:51:54;;;;;;;1.38;0.55;;;24.20;41.10;;;;;;5033442;28;20387;-59
2021/05/11 03:54:21;;;;;;;0.88;0.68;;;24.10;41.00;;;;;;5034245;28;20330;-59
2021/05/11 03:56:48;;;;;;;0.80;0.80;;;24.20;41.00;;;;;;5039262;28;20107;-60
2021/05/11 03:59:17;;;;;;;0.55;0.52;;;24.20;41.00;;;;;;5040523;28;20102;-60
2021/05/11 04:01:44;;;;;;;0.60;0.60;;;24.20;41.00;;;;;;5037577;28;20106;-60
2021/05/11 04:04:11;;;;;;;0.85;0.85;;;24.20;40.90;;;;;;5042645;28;20057;-60
2021/05/11 04:06:40;;;;;;;0.68;0.65;;;24.30;40.90;;;;;;5042715;28;20044;-60
2021/05/11 04:12:09;;;;;;;0.40;0.40;;;24.30;40.90;;;;;;5045380;28;20482;-61
2021/05/11 04:17:23;;;;;;;0.50;0.50;;;24.30;40.70;;;;;;5045267;28;20081;-60
2021/05/11 04:19:50;;;;;;;0.50;0.50;;;24.30;40.70;;;;;;5038891;28;20049;-60
2021/05/11 04:22:17;;;;;;;0.50;0.50;;;24.30;40.60;;;;;;5037333;28;20045;-60
2021/05/11 04:24:44;;;;;;;0.63;0.63;;;24.30;40.60;;;;;;5033641;28;20486;-60
2021/05/11 04:27:11;;;;;;;0.50;0.50;;;24.30;40.60;;;;;;5032950;28;21259;-59
2021/05/11 04:29:39;;;;;;;0.43;0.43;;;24.40;40.60;;;;;;5038061;28;20076;-60
2021/05/11 04:32:06;;;;;;;1.02;0.70;;;24.40;40.60;;;;;;5037552;28;20329;-59
2021/05/11 04:34:33;;;;;;;0.70;0.70;;;24.40;40.60;;;;;;5033740;28;20249;-60
2021/05/11 04:37:00;;;;;;;0.95;0.60;;;24.40;40.60;;;;;;5029887;28;20574;-61
2021/05/11 04:39:27;;;;;;;0.60;0.60;;;24.40;40.50;;;;;;5030529;28;20041;-62
2021/05/11 04:41:54;;;;;;;0.50;0.50;;;24.50;40.50;;;;;;5033614;28;20076;-62
2021/05/11 04:44:25;;;;;;;0.47;0.40;;;24.50;40.50;;;;;;5036272;28;20505;-61
2021/05/11 04:47:00;;;;;;;0.43;0.43;;;24.50;40.40;;;;;;5037792;28;20092;-61
2021/05/11 04:49:27;;;;;;;1.05;0.77;;;24.50;40.90;;;;;;5033186;28;20394;-61
2021/05/11 04:51:55;;;;;;;0.57;0.57;;;24.50;40.40;;;;;;5031790;28;20044;-61
2021/05/11 04:54:22;;;;;;;0.68;0.68;;;24.50;40.30;;;;;;5032483;28;20084;-60
2021/05/11 04:56:49;;;;;;;1.77;0.40;;;24.50;40.30;;;;;;5034163;28;20234;-60
2021/05/11 04:59:18;;;;;;;0.50;0.50;;;24.60;40.00;;;;;;5039894;28;20091;-60
2021/05/11 05:01:47;;;;;;;1.48;0.93;;;24.60;40.30;;;;;;5037447;28;20084;-60
2021/05/11 05:04:16;;;;;;;0.70;0.70;;;24.60;40.20;;;;;;5034157;28;20132;-60
2021/05/11 05:06:43;;;;;;;0.73;0.50;;;24.60;40.20;;;;;;5033962;28;20072;-59
2021/05/11 05:09:10;;;;;;;0.52;0.52;;;24.60;40.10;;;;;;5032358;28;20045;-59
2021/05/11 05:11:41;;;;;;;0.68;0.68;;;24.70;40.10;;;;;;5035446;28;20037;-60
2021/05/11 05:14:09;;;;;;;0.82;0.82;;;24.70;40.00;;;;;;5027551;28;20057;-60
2021/05/11 05:16:36;;;;;;;0.50;0.50;;;24.70;39.90;;;;;;5002766;28;20171;-60
2021/05/11 05:19:05;;;;;;;0.70;0.70;;;24.70;39.90;;;;;;5031727;28;20037;-60
2021/05/11 05:21:32;;;;;;;1.63;0.68;;;24.70;40.00;;;;;;5029105;28;20374;-60
2021/05/11 05:24:09;;;;;;;0.55;0.55;;;24.70;39.90;;;;;;5032237;28;20091;-61
2021/05/11 05:26:37;;;;;;;2.95;1.23;;;24.80;39.90;;;;;;5031929;28;20131;-61
2021/05/11 05:29:09;;;;;;;2.05;1.00;;;24.80;39.90;;;;;;5032101;28;20053;-59
2021/05/11 05:31:36;;;;;;;0.90;0.90;;;24.80;39.90;;;;;;5042699;28;20641;-61
2021/05/11 05:34:03;;;;;;;2.50;1.20;;;24.80;39.70;;;;;;5029723;28;20797;-60
2021/05/11 05:36:31;;;;;;;2.50;1.55;;;24.90;39.90;;;;;;5035501;28;20041;-60
2021/05/11 05:38:58;;;;;;;2.45;1.17;;;24.90;39.80;;;;;;5030014;28;20490;-60
2021/05/11 05:41:25;;;;;;;1.63;1.08;;;24.90;39.80;;;;;;5034668;28;20052;-60
2021/05/11 05:43:58;;;;;;;1.77;1.15;;;25.00;39.80;;;;;;5034864;28;20047;-61
2021/05/11 05:46:26;;;;;;;2.88;1.67;;;24.90;39.80;;;;;;5033616;28;20095;-62
2021/05/11 05:48:53;;;;;;;2.47;1.30;;;25.00;39.80;;;;;;5034877;28;20049;-64
2021/05/11 05:51:21;;;;;;;2.25;2.05;;;25.00;39.90;;;;;;5032869;28;20450;-61
2021/05/11 05:53:48;;;;;;;2.53;1.88;;;25.00;40.00;;;;;;5033285;28;20087;-61
2021/05/11 05:56:18;;;;;;;3.55;1.70;;;25.10;40.10;;;;;;5030828;28;20498;-60
2021/05/11 05:58:46;;;;;;;3.95;1.60;;;25.10;40.10;;;;;;5030607;28;20091;-59
2021/05/11 06:01:17;;;;;;;2.65;1.80;;;25.10;40.10;;;;;;5033611;28;20137;-60
2021/05/11 06:03:51;;;;;;;3.33;2.42;;;25.20;40.00;;;;;;5029178;28;20477;-59
2021/05/11 06:06:19;;;;;;;2.85;2.50;;;25.20;40.10;;;;;;5034198;28;20053;-59
2021/05/11 06:08:48;;;;;;;6.22;2.53;;;25.30;40.20;;;;;;5033173;28;20053;-57
2021/05/11 06:11:40;;;;;;;4.13;2.17;;;25.40;40.30;;;;;;5044553;28;20053;-58
2021/05/11 06:14:13;;;;;;;3.30;2.15;;;25.40;40.50;;;;;;5028906;28;20056;-58
2021/05/11 06:19:27;;;;;;;5.68;3.92;;;25.40;40.70;;;;;;5029973;28;20079;-58
2021/05/11 06:21:55;;;;;;;5.97;2.13;;;25.50;40.60;;;;;;5034109;28;20053;-58
2021/05/11 06:24:22;;;;;;;7.72;2.83;;;25.50;40.50;;;;;;5046146;28;20140;-59
2021/05/11 06:26:51;;;;;;;6.95;3.08;;;25.60;40.40;;;;;;5024890;28;20520;-59
2021/05/11 06:29:21;;;;;;;5.22;2.80;;;25.60;40.30;;;;;;5029174;28;20049;-61
2021/05/11 06:31:48;;;;;;;4.25;2.70;;;25.70;40.30;;;;;;5031400;28;20147;-60
2021/05/11 06:34:16;;;;;;;6.13;3.22;;;25.70;40.30;;;;;;5031189;28;20053;-59
2021/05/11 06:36:43;;;;;;;3.63;3.28;;;25.70;40.20;;;;;;5033033;28;20117;-60
2021/05/11 06:39:13;;;;;;;3.28;2.78;;;25.80;40.20;;;;;;5023414;28;20049;-59
2021/05/11 06:41:45;;;;;;;7.28;2.65;;;25.80;40.00;;;;;;5028105;28;20045;-60
2021/05/11 06:44:28;;;;;;;6.20;2.92;;;25.80;40.00;;;;;;5029550;28;20131;-61
2021/05/11 06:52:48;;;;;;;10.32;3.25;;;25.90;40.10;;;;;;5030309;28;20560;-61
2021/05/11 06:55:18;;;;;;;4.35;3.47;;;25.90;40.20;;;;;;5033373;28;20505;-61
2021/05/11 06:57:46;;;;;;;4.57;2.75;;;26.00;39.90;;;;;;5029591;28;20099;-61
2021/05/11 07:00:18;;;;;;;9.68;2.83;;;26.00;39.80;;;;;;5032986;28;20057;-62
2021/05/11 07:02:45;;;;;;;3.50;2.65;;;26.10;40.00;;;;;;5026925;28;20123;-60
2021/05/11 07:05:12;;;;;;;7.20;2.70;;;26.10;40.20;;;;;;5029490;28;20064;-60
2021/05/11 07:07:42;;;;;;;6.93;3.10;;;26.10;40.20;;;;;;5028772;28;20099;-53
2021/05/11 07:10:27;;;;;;;3.63;2.47;;;26.10;40.10;;;;;;5030780;28;20167;-60
2021/05/11 07:13:11;;;;;;;4.40;2.65;;;26.20;40.20;;;;;;5028533;28;20046;-60
2021/05/11 07:15:44;;;;;;;4.93;2.63;;;26.20;40.20;;;;;;5005914;28;20040;-61
2021/05/11 07:18:16;;;;;;;4.28;2.75;;;26.20;40.20;;;;;;5030360;28;20064;-62
2021/05/11 07:20:46;;;;;;;3.42;2.50;;;26.20;40.30;;;;;;5032129;28;20073;-58
2021/05/11 07:23:21;;;;;;;;;;;26.30;40.30;;;;;;5031472;28;20079;-58
2021/05/11 07:31:26;;;;;;;4.47;2.85;;;26.30;40.30;;;;;;5032154;28;20048;-62
2021/05/11 07:33:55;;;;;;;2.83;2.50;;;26.40;40.10;;;;;;5033269;28;20077;-60
2021/05/11 07:36:24;;;;;;;3.35;2.38;;;26.40;40.10;;;;;;5025642;28;20441;-61
2021/05/11 07:38:51;;;;;;;4.03;2.30;;;26.40;39.60;;;;;;5029915;28;20045;-61
2021/05/11 07:41:19;;;;;;;3.63;2.17;;;26.40;39.40;;;;;;5029159;28;20076;-59
2021/05/11 07:43:52;;;;;;;3.22;2.00;;;26.50;39.30;;;;;;5030221;28;20061;-60
2021/05/11 07:46:36;;;;;;;3.05;2.20;;;26.50;39.70;;;;;;5030289;28;20513;-59
2021/05/11 07:49:36;;;;;;;2.47;2.00;;;26.60;39.30;;;;;;5030119;28;20045;-60
2021/05/11 07:52:23;;;;;;;5.22;1.95;;;26.60;39.50;;;;;;5029059;28;20068;-60
2021/05/11 08:06:14;;;;;;;3.00;1.80;;;26.70;37.90;;;;;;5026351;28;20483;-60
2021/05/11 08:14:31;;;;;;;5.28;2.30;;;26.70;37.70;;;;;;5026560;28;20512;-60
2021/05/11 08:16:59;;;;;;;7.88;2.63;;;26.70;37.50;;;;;;5017461;28;20256;-60
2021/05/11 08:22:35;;;;;;;4.97;2.00;;;26.70;37.70;;;;;;5028992;28;20063;-60
2021/05/11 08:27:55;;;;;;;6.18;1.88;;;26.70;37.90;;;;;;5029750;28;20045;-60
2021/05/11 08:30:23;;;;;;;9.98;2.05;;;26.70;37.90;;;;;;5032209;28;20114;-59
2021/05/11 08:32:51;;;;;;;2.60;2.00;;;26.70;37.80;;;;;;5027110;28;20144;-58
2021/05/11 08:35:18;;;;;;;3.83;2.45;;;26.70;37.80;;;;;;5028665;28;20055;-59
2021/05/11 08:37:45;;;;;;;5.53;1.42;;;26.70;37.40;;;;;;5035900;28;20060;-59
2021/05/11 08:40:13;;;;;;;3.88;1.58;;;26.80;36.30;;;;;;5029046;28;20115;-59
2021/05/11 08:42:40;;;;;;;1.50;1.40;;;26.70;35.90;;;;;;5028232;28;20137;-60
2021/05/11 08:45:10;;;;;;;5.65;1.67;;;26.70;36.00;;;;;;5025287;28;20054;-59
2021/05/11 08:47:49;;;;;;;4.03;1.70;;;26.70;36.00;;;;;;5030245;28;20053;-59
2021/05/11 08:50:19;;;;;;;1.67;1.40;;;26.70;36.10;;;;;;5025618;28;20053;-60
2021/05/11 08:53:04;;;;;;;3.55;1.70;;;26.70;36.00;;;;;;5026087;28;20079;-60
2021/05/11 09:04:43;;;;;;;2.80;1.65;;;26.80;35.60;;;;;;5033397;28;20053;-61
2021/05/11 09:07:45;;;;;;;1.70;1.60;;;26.80;35.80;;;;;;5032748;28;20478;-61
2021/05/11 09:27:34;;;;;;;3.63;1.50;;;27.00;35.80;;;;;;5025005;28;20049;-60
2021/05/11 09:30:15;;;;;;;;;;;27.00;35.40;;;;;;5029540;28;20552;-61
2021/05/11 09:32:59;;;;;;;4.38;1.55;;;26.90;35.40;;;;;;5032195;28;19967;-61
2021/05/11 09:58:59;;;;;;;2.10;1.70;;;27.40;36.80;;;;;;5035032;28;20045;-59
2021/05/11 10:10:33;;;;;;;8.85;1.90;;;27.40;36.40;;;;;;5033520;28;20080;-60
2021/05/11 10:39:18;;;;;;;5.18;1.60;;;27.60;34.30;;;;;;5032625;28;20045;-61
2021/05/11 10:42:08;;;;;;;2.90;1.52;;;27.60;34.60;;;;;;5030134;28;20042;-61
2021/05/11 10:48:22;;;;;;;3.20;1.48;;;27.60;34.90;;;;;;5032970;28;20143;-60
2021/05/11 10:51:17;;;;;;;4.38;1.35;;;27.70;35.00;;;;;;5037688;28;20099;-59
2021/05/11 10:53:57;;;;;;;5.50;1.60;;;27.70;35.30;;;;;;5034620;28;20538;-59
2021/05/11 10:56:46;;;;;;;1.98;1.45;;;27.80;35.60;;;;;;5027297;28;20102;-60
2021/05/11 10:59:35;;;;;;;6.97;1.83;;;27.80;35.60;;;;;;5029673;28;20072;-60
2021/05/11 11:02:35;;;;;;;1.67;1.35;;;27.80;35.60;;;;;;5027380;28;20060;-62
2021/05/11 11:04:55;;;;;;;3.08;1.73;;;27.90;35.80;;;;;;5030215;28;20037;-61
2021/05/11 11:07:37;;;;;;;1.80;1.70;;;28.00;35.70;;;;;;5031566;28;20069;-61
2021/05/11 11:10:07;;;;;;;2.08;1.70;;;27.90;35.70;;;;;;5031245;28;20136;-61
2021/05/11 11:12:39;;;;;;;4.07;1.80;;;28.00;35.70;;;;;;5032314;28;20141;-60
2021/05/11 11:15:12;;;;;;;2.65;1.60;;;28.00;35.60;;;;;;5035125;28;20091;-60
2021/05/11 11:17:47;;;;;;;2.55;1.83;;;28.00;35.80;;;;;;5017805;28;20077;-61
2021/05/11 11:20:14;;;;;;;4.32;1.52;;;28.00;36.00;;;;;;5036097;28;20053;-62
2021/05/11 11:25:29;;;;;;;1.67;1.55;;;28.10;36.10;;;;;;5029201;28;20443;-60
2021/05/11 11:27:56;;;;;;;2.55;1.60;;;28.10;36.20;;;;;;5029789;28;20136;-63
2021/05/11 11:30:23;;;;;;;3.08;1.60;;;28.10;36.00;;;;;;5029526;28;20091;-63
2021/05/11 11:32:51;;;;;;;2.38;2.08;;;28.20;36.30;;;;;;5034348;28;20406;-60
2021/05/11 11:35:19;;;;;;;2.88;1.67;;;28.20;36.20;;;;;;5030131;28;20597;-63
2021/05/11 11:37:50;;;;;;;3.88;1.83;;;28.20;35.60;;;;;;5029298;28;20421;-61
2021/05/11 11:40:17;;;;;;;2.70;1.50;;;28.30;35.90;;;;;;5032689;28;20132;-61
2021/05/11 11:42:47;;;;;;;5.38;2.40;;;28.30;36.10;;;;;;5029057;28;20938;-63
2021/05/11 11:45:28;;;;;;;5.05;1.75;;;28.30;35.80;;;;;;5031320;28;20068;-60
2021/05/11 11:48:03;;;;;;;3.83;1.90;;;28.40;35.70;;;;;;5028448;28;20045;-64
2021/05/11 11:50:34;;;;;;;2.42;1.88;;;28.40;35.70;;;;;;5034315;28;21545;-63
2021/05/11 11:53:12;;;;;;;1.70;1.60;;;28.40;35.60;;;;;;5032295;28;20051;-62
2021/05/11 11:58:32;;;;;;;3.50;1.75;;;28.50;36.00;;;;;;5029895;28;20060;-57
2021/05/11 12:01:10;;;;;;;2.88;1.77;;;28.50;35.90;;;;;;5029922;28;20551;-58
2021/05/11 12:03:41;;;;;;;10.27;1.80;;;28.60;36.00;;;;;;5030563;28;20076;-59
2021/05/11 12:06:09;;;;;;;1.90;1.80;;;28.60;35.80;;;;;;5027359;28;20250;-59
2021/05/11 12:08:37;;;;;;;2.55;1.60;;;28.50;35.70;;;;;;5028897;28;20080;-64
2021/05/11 12:11:06;;;;;;;4.05;1.85;;;28.20;36.40;;;;;;5030924;28;20076;-61
2021/05/11 12:13:36;;;;;;;2.75;1.90;;;27.80;37.30;;;;;;5034031;28;20125;-61
2021/05/11 12:16:17;;;;;;;1.95;1.77;;;27.40;38.00;;;;;;5018934;28;20125;-60
2021/05/11 12:19:06;;;;;;;4.28;1.92;;;27.00;38.80;;;;;;5032501;28;20102;-56
2021/05/11 12:21:47;;;;;;;2.38;2.17;;;26.60;39.80;;;;;;5033384;28;20049;-58
2021/05/11 12:24:15;;;;;;;2.10;1.90;;;26.30;40.30;;;;;;5029036;28;20069;-62
2021/05/11 12:26:44;;;;;;;1.60;1.50;;;26.00;40.90;;;;;;5035508;28;20168;-62
2021/05/11 12:29:31;;;;;;;2.00;1.90;;;25.80;41.50;;;;;;5028763;28;20415;-62
2021/05/11 12:31:58;;;;;;;3.38;1.90;;;25.60;42.10;;;;;;5031270;28;20551;-61
2021/05/11 12:34:28;;;;;;;3.22;2.38;;;25.40;42.30;;;;;;5038342;28;20045;-62
2021/05/11 12:36:58;;;;;;;2.42;2.22;;;25.30;42.90;;;;;;5032062;28;20448;-59
2021/05/11 12:39:48;;;;;;;2.17;2.08;;;25.20;42.70;;;;;;5032772;28;20564;-59
2021/05/11 12:42:22;;;;;;;16.80;3.03;;;25.00;42.50;;;;;;5033026;28;20592;-61
2021/05/11 12:45:07;;;;;;;4.15;2.10;;;24.90;42.90;;;;;;5034079;28;20077;-61
2021/05/11 12:47:46;;;;;;;2.40;2.17;;;24.80;42.90;;;;;;5039682;28;20052;-61
2021/05/11 12:50:15;;;;;;;2.90;2.03;;;24.80;43.00;;;;;;5036829;28;20058;-61
2021/05/11 12:52:44;;;;;;;2.63;2.38;;;24.70;43.20;;;;;;5036105;28;20513;-62
2021/05/11 12:55:20;;;;;;;3.53;2.38;;;24.70;43.20;;;;;;5039694;28;20049;-61
2021/05/11 12:57:58;;;;;;;2.25;2.05;;;24.60;43.00;;;;;;5044616;28;20045;-60
2021/05/11 13:00:37;;;;;;;2.88;2.47;;;24.60;43.10;;;;;;5039662;28;20128;-61
2021/05/11 13:03:33;;;;;;;4.47;2.30;;;24.80;42.80;;;;;;5038694;28;20076;-61
2021/05/11 13:14:41;;;;;;;5.63;2.58;;;26.10;40.10;;;;;;5035179;28;20084;-62
2021/05/11 13:17:02;;;;;;;3.60;2.28;;;26.40;39.60;;;;;;5021993;28;20416;-59
2021/05/11 13:22:25;;;;;;;5.65;2.80;;;26.80;38.70;;;;;;5036237;28;20048;-60
2021/05/11 13:25:16;;;;;;;3.55;2.08;;;27.00;38.40;;;;;;5035155;28;20079;-60
2021/05/11 13:27:52;;;;;;;8.57;2.47;;;27.20;38.20;;;;;;5034446;28;20141;-60
2021/05/11 13:30:32;;;;;;;3.03;2.13;;;27.30;38.00;;;;;;5034313;28;20453;-60
2021/05/11 13:33:16;;;;;;;2.53;2.15;;;27.40;37.90;;;;;;5034485;28;20132;-58
2021/05/11 13:35:43;;;;;;;2.22;2.03;;;27.60;37.70;;;;;;5035045;28;20104;-59
2021/05/11 13:38:11;;;;;;;3.25;2.20;;;27.70;37.60;;;;;;5036713;28;20494;-60
2021/05/11 13:40:38;;;;;;;3.30;2.25;;;27.70;37.50;;;;;;5039488;28;20454;-58
2021/05/11 13:43:06;;;;;;;5.53;2.00;;;27.80;37.40;;;;;;5032497;28;20088;-58
2021/05/11 13:45:33;;;;;;;4.93;2.00;;;27.90;37.50;;;;;;5033790;28;20057;-60
2021/05/11 13:48:03;;;;;;;2.53;2.33;;;27.90;37.70;;;;;;5038923;28;20048;-59
2021/05/11 13:50:54;;;;;;;2.80;2.60;;;28.00;37.60;;;;;;5037539;28;20111;-59
2021/05/11 13:53:21;;;;;;;9.02;2.53;;;28.10;37.70;;;;;;5036717;28;20539;-60
2021/05/11 13:56:05;;;;;;;4.50;2.42;;;28.10;37.70;;;;;;5035351;28;20133;-62
2021/05/11 14:01:54;;;;;;;3.85;2.95;;;28.20;37.60;;;;;;5030435;28;20067;-59
2021/05/11 14:04:09;;;;;;;4.40;2.42;;;28.20;37.50;;;;;;5033677;28;20046;-59
2021/05/11 14:06:36;;;;;;;7.45;3.15;;;28.30;37.60;;;;;;5035057;28;20164;-58
2021/05/11 14:09:06;;;;;;;2.63;2.25;;;28.30;37.50;;;;;;5032144;28;20057;-59
2021/05/11 14:11:35;;;;;;;3.27;2.97;;;28.30;37.70;;;;;;5031610;28;20080;-59
2021/05/11 14:14:03;;;;;;;3.15;2.40;;;28.30;37.60;;;;;;5036791;28;21092;-58
2021/05/11 14:16:30;;;;;;;4.60;3.33;;;28.40;37.40;;;;;;5014470;28;20052;-58
2021/05/11 14:18:58;;;;;;;4.80;2.42;;;28.40;37.40;;;;;;5034216;28;20136;-59
2021/05/11 14:21:25;;;;;;;3.67;2.47;;;28.40;37.30;;;;;;5035358;28;20255;-58
2021/05/11 14:23:53;;;;;;;4.10;2.65;;;28.50;37.50;;;;;;5035859;28;20072;-57
2021/05/11 14:26:20;;;;;;;5.60;2.47;;;28.50;37.80;;;;;;5033006;28;20059;-58
2021/05/11 14:28:47;;;;;;;9.52;2.92;;;28.50;37.70;;;;;;5031940;28;20068;-57
2021/05/11 14:31:15;;;;;;;2.50;2.28;;;28.50;37.30;;;;;;5024423;28;20057;-59
2021/05/11 14:33:43;;;;;;;5.55;2.47;;;28.50;37.50;;;;;;5032069;28;20045;-59
2021/05/11 14:36:11;;;;;;;7.40;2.83;;;28.50;37.60;;;;;;5037200;28;20045;-58
2021/05/11 14:38:39;;;;;;;5.38;2.55;;;28.50;37.10;;;;;;5041071;28;20077;-60
2021/05/11 14:41:08;;;;;;;4.88;2.92;;;28.50;37.00;;;;;;5037794;28;20508;-60
2021/05/11 14:43:37;;;;;;;3.05;2.75;;;28.50;37.10;;;;;;5027396;28;20512;-61
2021/05/11 14:46:06;;;;;;;4.43;2.45;;;28.40;37.10;;;;;;5038455;28;20585;-61
2021/05/11 14:48:35;;;;;;;3.00;2.20;;;28.10;37.30;;;;;;5033721;28;20486;-60
2021/05/11 14:51:04;;;;;;;5.07;2.72;;;27.90;37.70;;;;;;5041382;28;20362;-60
2021/05/11 14:53:32;;;;;;;3.88;2.38;;;27.60;38.10;;;;;;5031658;28;20150;-60
2021/05/11 14:56:01;;;;;;;2.55;2.35;;;27.40;38.40;;;;;;5027830;28;20556;-60
2021/05/11 14:58:32;;;;;;;4.30;2.58;;;27.10;38.80;;;;;;5025098;28;20110;-61
2021/05/11 15:00:59;;;;;;;2.25;2.10;;;26.90;39.00;;;;;;5041295;28;20303;-61
2021/05/11 15:03:27;;;;;;;2.58;2.38;;;26.80;39.40;;;;;;5034363;28;20087;-60
2021/05/11 15:06:14;;;;;;;2.60;2.40;;;26.70;39.60;;;;;;5026981;28;20056;-60
2021/05/11 15:08:41;;;;;;;2.10;2.00;;;26.50;39.70;;;;;;5034456;28;20656;-62
2021/05/11 15:11:08;;;;;;;3.50;2.55;;;26.40;39.80;;;;;;5038391;28;20577;-59
2021/05/11 15:13:36;;;;;;;3.60;2.42;;;26.30;39.80;;;;;;5032665;28;20041;-59
2021/05/11 15:16:07;;;;;;;2.47;2.28;;;26.30;40.00;;;;;;5039017;28;20044;-61
2021/05/11 15:18:34;;;;;;;4.32;2.47;;;26.20;40.10;;;;;;5044360;28;20049;-60
2021/05/11 15:21:02;;;;;;;2.17;2.05;;;26.20;40.20;;;;;;5044508;28;20456;-60
2021/05/11 15:23:30;;;;;;;2.15;2.00;;;26.10;40.20;;;;;;5044868;28;20053;-60
2021/05/11 15:25:57;;;;;;;3.75;2.25;;;26.20;40.30;;;;;;5044363;28;20112;-61
2021/05/11 15:28:24;;;;;;;2.40;2.20;;;26.10;40.90;;;;;;5040556;28;20296;-59
2021/05/11 15:30:51;;;;;;;3.08;2.00;;;26.20;40.80;;;;;;5042987;28;20253;-58
2021/05/11 15:33:18;;;;;;;2.45;2.10;;;26.20;40.80;;;;;;5045390;28;20136;-59
2021/05/11 15:35:46;;;;;;;4.40;2.17;;;26.20;40.80;;;;;;5044580;28;20460;-59
2021/05/11 15:38:13;;;;;;;3.97;2.75;;;26.20;40.80;;;;;;5044495;28;20147;-59
2021/05/11 15:40:41;;;;;;;2.40;2.20;;;26.20;40.90;;;;;;5044587;28;20087;-60
2021/05/11 15:43:09;;;;;;;2.90;2.10;;;26.20;40.90;;;;;;5044731;28;20119;-58
2021/05/11 15:45:37;;;;;;;2.33;2.13;;;26.30;41.00;;;;;;5044708;28;20341;-59
2021/05/11 15:48:08;;;;;;;2.67;2.40;;;26.30;40.90;;;;;;5044460;28;20144;-58
2021/05/11 15:50:37;;;;;;;3.30;2.00;;;26.30;40.70;;;;;;5044158;28;20103;-58
2021/05/11 15:53:07;;;;;;;2.35;1.83;;;26.40;40.60;;;;;;5044575;28;20124;-58
2021/05/11 15:55:36;;;;;;;;;;;26.40;40.40;;;;;;5044591;28;20080;-59
2021/05/11 15:58:03;;;;;;;2.33;1.88;;;26.50;40.30;;;;;;5044366;28;20035;-59
2021/05/11 16:00:31;;;;;;;2.17;1.80;;;26.50;40.20;;;;;;5043696;28;20045;-58
2021/05/11 16:03:00;;;;;;;2.30;2.05;;;26.50;40.10;;;;;;5044426;28;20524;-58
2021/05/11 16:05:28;;;;;;;2.17;2.08;;;26.60;40.20;;;;;;5043501;28;20076;-58
2021/05/11 16:07:56;;;;;;;2.60;2.00;;;26.70;40.20;;;;;;5044617;28;20095;-58
2021/05/11 16:10:23;;;;;;;2.17;1.98;;;26.90;40.00;;;;;;5043968;28;20126;-59
2021/05/11 16:12:50;;;;;;;2.25;2.05;;;27.10;39.60;;;;;;5043639;28;20482;-58
2021/05/11 16:15:18;;;;;;;1.98;1.88;;;27.30;39.20;;;;;;5044320;28;20099;-58
2021/05/11 16:17:49;;;;;;;2.28;2.03;;;27.50;38.90;;;;;;5044134;28;20075;-58